sensor_id;sensor_type;location;lat;lon;timestamp;pressure;altitude;pressure_sealevel;temperature;humidity
7802;BME280;3945;48.952;9.506;2023-01-16T00:00:49;96830.69;;;4.37;73.30
7802;BME280;3945;48.952;9.506;2023-01-16T00:03:15;96825.44;;;4.37;73.43
7802;BME280;3945;48.952;9.506;2023-01-16T00:05:42;96828.66;;;4.39;72.89
7802;BME280;3945;48.952;9.506;2023-01-16T00:08:08;96815.72;;;4.37;73.09
7802;BME280;3945;48.952;9.506;2023-01-16T00:10:35;96807.59;;;4.39;72.78
7802;BME280;3945;48.952;9.506;2023-01-16T00:13:03;96812.25;;;4.37;73.75
7802;BME280;3945;48.952;9.506;2023-01-16T00:15:29;96803.91;;;4.40;72.98
7802;BME280;3945;48.952;9.506;2023-01-16T00:17:55;96793.94;;;4.42;72.55
7802;BME280;3945;48.952;9.506;2023-01-16T00:20:22;96787.88;;;4.41;71.63
7802;BME280;3945;48.952;9.506;2023-01-16T00:22:48;96788.09;;;4.40;72.31
7802;BME280;3945;48.952;9.506;2023-01-16T00:25:14;96781.47;;;4.37;73.05
7802;BME280;3945;48.952;9.506;2023-01-16T00:27:41;96760.97;;;4.39;72.39
7802;BME280;3945;48.952;9.506;2023-01-16T00:30:09;96774.69;;;4.41;72.24
7802;BME280;3945;48.952;9.506;2023-01-16T00:32:35;96752.81;;;4.41;72.80
7802;BME280;3945;48.952;9.506;2023-01-16T00:35:02;96761.22;;;4.38;72.63
7802;BME280;3945;48.952;9.506;2023-01-16T00:37:29;96754.22;;;4.43;72.06
7802;BME280;3945;48.952;9.506;2023-01-16T00:39:55;96753.19;;;4.44;72.20
7802;BME280;3945;48.952;9.506;2023-01-16T00:42:21;96751.34;;;4.45;72.36
7802;BME280;3945;48.952;9.506;2023-01-16T00:44:48;96746.63;;;4.47;71.93
7802;BME280;3945;48.952;9.506;2023-01-16T00:47:15;96738.72;;;4.47;72.49
7802;BME280;3945;48.952;9.506;2023-01-16T00:49:42;96741.38;;;4.47;71.98
7802;BME280;3945;48.952;9.506;2023-01-16T00:52:08;96739.44;;;4.54;71.10
7802;BME280;3945;48.952;9.506;2023-01-16T00:54:35;96730.16;;;4.51;71.76
7802;BME280;3945;48.952;9.506;2023-01-16T00:57:01;96724.53;;;4.48;71.89
7802;BME280;3945;48.952;9.506;2023-01-16T00:59:27;96722.38;;;4.45;72.15
7802;BME280;3945;48.952;9.506;2023-01-16T01:01:54;96713.91;;;4.43;71.74
7802;BME280;3945;48.952;9.506;2023-01-16T01:04:21;96708.19;;;4.46;71.93
7802;BME280;3945;48.952;9.506;2023-01-16T01:06:48;96710.56;;;4.47;72.53
7802;BME280;3945;48.952;9.506;2023-01-16T01:09:15;96707.38;;;4.45;72.18
7802;BME280;3945;48.952;9.506;2023-01-16T01:11:41;96697.06;;;4.44;72.37
7802;BME280;3945;48.952;9.506;2023-01-16T01:14:07;96684.72;;;4.44;72.40
7802;BME280;3945;48.952;9.506;2023-01-16T01:16:34;96686.31;;;4.45;72.52
7802;BME280;3945;48.952;9.506;2023-01-16T01:19:01;96683.09;;;4.43;72.10
7802;BME280;3945;48.952;9.506;2023-01-16T01:21:28;96672.34;;;4.45;71.76
7802;BME280;3945;48.952;9.506;2023-01-16T01:23:55;96674.97;;;4.45;71.83
7802;BME280;3945;48.952;9.506;2023-01-16T01:26:21;96676.47;;;4.41;72.03
7802;BME280;3945;48.952;9.506;2023-01-16T01:28:47;96676.72;;;4.39;72.29
7802;BME280;3945;48.952;9.506;2023-01-16T01:31:14;96667.22;;;4.38;72.87
7802;BME280;3945;48.952;9.506;2023-01-16T01:33:40;96659.31;;;4.38;72.30
7802;BME280;3945;48.952;9.506;2023-01-16T01:36:07;96657.47;;;4.39;72.43
7802;BME280;3945;48.952;9.506;2023-01-16T01:38:35;96647.97;;;4.38;72.25
7802;BME280;3945;48.952;9.506;2023-01-16T01:41:01;96641.31;;;4.35;72.07
7802;BME280;3945;48.952;9.506;2023-01-16T01:43:38;96637.09;;;4.34;72.03
7802;BME280;3945;48.952;9.506;2023-01-16T01:46:05;96632.84;;;4.33;72.46
7802;BME280;3945;48.952;9.506;2023-01-16T01:48:34;96630.47;;;4.31;72.43
7802;BME280;3945;48.952;9.506;2023-01-16T01:51:02;96626.25;;;4.30;72.73
7802;BME280;3945;48.952;9.506;2023-01-16T01:53:32;96623.38;;;4.32;72.17
7802;BME280;3945;48.952;9.506;2023-01-16T01:56:01;96609.06;;;4.28;73.02
7802;BME280;3945;48.952;9.506;2023-01-16T01:58:30;96600.13;;;4.29;73.02
7802;BME280;3945;48.952;9.506;2023-01-16T02:00:58;96603.00;;;4.27;72.22
7802;BME280;3945;48.952;9.506;2023-01-16T02:03:28;96588.13;;;4.21;73.29
7802;BME280;3945;48.952;9.506;2023-01-16T02:05:57;96583.31;;;4.18;73.57
7802;BME280;3945;48.952;9.506;2023-01-16T02:08:25;96574.31;;;4.14;73.42
7802;BME280;3945;48.952;9.506;2023-01-16T02:10:56;96563.69;;;4.09;73.31
7802;BME280;3945;48.952;9.506;2023-01-16T02:13:26;96562.00;;;4.03;73.55
7802;BME280;3945;48.952;9.506;2023-01-16T02:15:52;96559.25;;;3.98;73.74
7802;BME280;3945;48.952;9.506;2023-01-16T02:18:56;96560.19;;;3.92;74.22
7802;BME280;3945;48.952;9.506;2023-01-16T02:21:50;96547.25;;;3.90;73.96
7802;BME280;3945;48.952;9.506;2023-01-16T02:24:27;96542.56;;;3.92;73.69
7802;BME280;3945;48.952;9.506;2023-01-16T02:27:09;96524.13;;;3.92;73.84
7802;BME280;3945;48.952;9.506;2023-01-16T02:29:54;96518.06;;;3.92;73.58
7802;BME280;3945;48.952;9.506;2023-01-16T02:32:35;96505.72;;;3.92;74.18
7802;BME280;3945;48.952;9.506;2023-01-16T02:35:11;96496.56;;;3.95;73.24
7802;BME280;3945;48.952;9.506;2023-01-16T02:37:43;96493.59;;;3.91;73.55
7802;BME280;3945;48.952;9.506;2023-01-16T02:42:58;96482.75;;;3.88;73.51
7802;BME280;3945;48.952;9.506;2023-01-16T02:45:29;96469.25;;;3.84;73.60
7802;BME280;3945;48.952;9.506;2023-01-16T02:48:02;96467.34;;;3.80;74.03
7802;BME280;3945;48.952;9.506;2023-01-16T02:50:33;96463.66;;;3.81;73.08
7802;BME280;3945;48.952;9.506;2023-01-16T02:53:05;96456.22;;;3.78;74.08
7802;BME280;3945;48.952;9.506;2023-01-16T02:55:37;96451.19;;;3.76;74.15
7802;BME280;3945;48.952;9.506;2023-01-16T02:58:06;96438.53;;;3.73;74.46
7802;BME280;3945;48.952;9.506;2023-01-16T03:00:36;96431.69;;;3.72;73.75
7802;BME280;3945;48.952;9.506;2023-01-16T03:03:04;96426.97;;;3.74;73.58
7802;BME280;3945;48.952;9.506;2023-01-16T03:05:31;96422.75;;;3.73;73.69
7802;BME280;3945;48.952;9.506;2023-01-16T03:08:15;96419.78;;;3.70;74.41
7802;BME280;3945;48.952;9.506;2023-01-16T03:10:48;96411.31;;;3.68;74.45
7802;BME280;3945;48.952;9.506;2023-01-16T03:13:24;96407.00;;;3.62;74.92
7802;BME280;3945;48.952;9.506;2023-01-16T03:15:56;96393.31;;;3.60;74.57
7802;BME280;3945;48.952;9.506;2023-01-16T03:18:31;96386.44;;;3.59;74.56
7802;BME280;3945;48.952;9.506;2023-01-16T03:21:00;96376.94;;;3.58;75.30
7802;BME280;3945;48.952;9.506;2023-01-16T03:23:31;96379.34;;;3.59;75.37
7802;BME280;3945;48.952;9.506;2023-01-16T03:26:02;96369.06;;;3.58;75.17
7802;BME280;3945;48.952;9.506;2023-01-16T03:28:32;96357.50;;;3.59;75.63
7802;BME280;3945;48.952;9.506;2023-01-16T03:31:04;96359.13;;;3.60;75.05
7802;BME280;3945;48.952;9.506;2023-01-16T03:33:39;96352.72;;;3.56;75.66
7802;BME280;3945;48.952;9.506;2023-01-16T03:36:10;96355.56;;;3.54;75.18
7802;BME280;3945;48.952;9.506;2023-01-16T03:38:39;96343.44;;;3.53;75.45
7802;BME280;3945;48.952;9.506;2023-01-16T03:41:10;96341.75;;;3.59;75.19
7802;BME280;3945;48.952;9.506;2023-01-16T03:43:37;96328.25;;;3.55;75.20
7802;BME280;3945;48.952;9.506;2023-01-16T03:46:05;96327.44;;;3.54;75.75
7802;BME280;3945;48.952;9.506;2023-01-16T03:48:34;96317.34;;;3.63;75.34
7802;BME280;3945;48.952;9.506;2023-01-16T03:51:05;96309.94;;;3.60;75.17
7802;BME280;3945;48.952;9.506;2023-01-16T03:53:32;96304.34;;;3.57;75.95
7802;BME280;3945;48.952;9.506;2023-01-16T03:56:03;96300.34;;;3.54;75.91
7802;BME280;3945;48.952;9.506;2023-01-16T03:58:33;96301.94;;;3.55;76.12
7802;BME280;3945;48.952;9.506;2023-01-16T04:01:04;96300.19;;;3.61;75.44
7802;BME280;3945;48.952;9.506;2023-01-16T04:03:38;96287.84;;;3.61;75.27
7802;BME280;3945;48.952;9.506;2023-01-16T04:06:10;96271.84;;;3.63;75.82
7802;BME280;3945;48.952;9.506;2023-01-16T04:08:40;96271.03;;;3.62;75.42
7802;BME280;3945;48.952;9.506;2023-01-16T04:11:08;96271.63;;;3.64;75.87
7802;BME280;3945;48.952;9.506;2023-01-16T04:13:36;96254.88;;;3.70;74.55
7802;BME280;3945;48.952;9.506;2023-01-16T04:16:06;96247.22;;;3.69;74.48
7802;BME280;3945;48.952;9.506;2023-01-16T04:18:34;96245.88;;;3.66;75.34
7802;BME280;3945;48.952;9.506;2023-01-16T04:21:03;96243.25;;;3.66;75.77
7802;BME280;3945;48.952;9.506;2023-01-16T04:23:31;96240.06;;;3.64;75.17
7802;BME280;3945;48.952;9.506;2023-01-16T04:25:57;96231.06;;;3.60;75.77
7802;BME280;3945;48.952;9.506;2023-01-16T04:28:24;96226.50;;;3.56;76.46
7802;BME280;3945;48.952;9.506;2023-01-16T04:30:50;96214.88;;;3.51;76.44
7802;BME280;3945;48.952;9.506;2023-01-16T04:33:17;96208.19;;;3.44;75.69
7802;BME280;3945;48.952;9.506;2023-01-16T04:35:43;96207.84;;;3.40;76.85
7802;BME280;3945;48.952;9.506;2023-01-16T04:38:09;96195.41;;;3.36;76.19
7802;BME280;3945;48.952;9.506;2023-01-16T04:40:38;96190.88;;;3.31;76.31
7802;BME280;3945;48.952;9.506;2023-01-16T04:43:04;96184.34;;;3.34;74.94
7802;BME280;3945;48.952;9.506;2023-01-16T04:45:31;96176.94;;;3.31;75.05
7802;BME280;3945;48.952;9.506;2023-01-16T04:47:57;96171.91;;;3.29;75.20
7802;BME280;3945;48.952;9.506;2023-01-16T04:50:23;96154.31;;;3.30;74.88
7802;BME280;3945;48.952;9.506;2023-01-16T04:52:50;96151.19;;;3.33;74.11
7802;BME280;3945;48.952;9.506;2023-01-16T04:55:16;96146.19;;;3.31;75.12
7802;BME280;3945;48.952;9.506;2023-01-16T04:57:44;96138.44;;;3.25;74.98
7802;BME280;3945;48.952;9.506;2023-01-16T05:00:11;96129.78;;;3.24;75.32
7802;BME280;3945;48.952;9.506;2023-01-16T05:02:37;96125.31;;;3.25;74.25
7802;BME280;3945;48.952;9.506;2023-01-16T05:05:04;96110.72;;;3.17;75.25
7802;BME280;3945;48.952;9.506;2023-01-16T05:07:30;96108.38;;;3.16;75.24
7802;BME280;3945;48.952;9.506;2023-01-16T05:09:57;96102.78;;;3.12;75.71
7802;BME280;3945;48.952;9.506;2023-01-16T05:12:23;96094.09;;;3.11;74.50
7802;BME280;3945;48.952;9.506;2023-01-16T05:14:51;96095.84;;;3.06;75.41
7802;BME280;3945;48.952;9.506;2023-01-16T05:17:17;96087.41;;;3.04;75.72
7802;BME280;3945;48.952;9.506;2023-01-16T05:19:47;96086.06;;;3.01;75.57
7802;BME280;3945;48.952;9.506;2023-01-16T05:22:14;96069.19;;;2.97;75.20
7802;BME280;3945;48.952;9.506;2023-01-16T05:24:40;96058.44;;;2.99;75.05
7802;BME280;3945;48.952;9.506;2023-01-16T05:27:06;96057.41;;;3.00;74.76
7802;BME280;3945;48.952;9.506;2023-01-16T05:29:33;96047.28;;;3.08;75.16
7802;BME280;3945;48.952;9.506;2023-01-16T05:32:00;96041.00;;;3.09;75.65
7802;BME280;3945;48.952;9.506;2023-01-16T05:34:27;96041.25;;;3.08;75.41
7802;BME280;3945;48.952;9.506;2023-01-16T05:36:53;96026.75;;;3.05;74.98
7802;BME280;3945;48.952;9.506;2023-01-16T05:39:19;96031.69;;;3.02;74.97
7802;BME280;3945;48.952;9.506;2023-01-16T05:41:46;96025.09;;;2.99;76.31
7802;BME280;3945;48.952;9.506;2023-01-16T05:44:12;96023.25;;;3.00;74.89
7802;BME280;3945;48.952;9.506;2023-01-16T05:46:38;96004.31;;;2.98;75.88
7802;BME280;3945;48.952;9.506;2023-01-16T05:49:06;96002.63;;;3.08;75.39
7802;BME280;3945;48.952;9.506;2023-01-16T05:51:32;95995.03;;;3.29;74.71
7802;BME280;3945;48.952;9.506;2023-01-16T05:53:59;95987.44;;;3.32;73.71
7802;BME280;3945;48.952;9.506;2023-01-16T05:56:25;95975.25;;;3.43;73.64
7802;BME280;3945;48.952;9.506;2023-01-16T05:58:51;95975.28;;;3.48;72.98
7802;BME280;3945;48.952;9.506;2023-01-16T06:01:18;95973.03;;;3.57;73.44
7802;BME280;3945;48.952;9.506;2023-01-16T06:03:44;95955.47;;;3.62;72.90
7802;BME280;3945;48.952;9.506;2023-01-16T06:06:12;95947.84;;;3.61;72.34
7802;BME280;3945;48.952;9.506;2023-01-16T06:08:38;95941.81;;;3.60;72.19
7802;BME280;3945;48.952;9.506;2023-01-16T06:11:04;95929.06;;;3.74;72.20
7802;BME280;3945;48.952;9.506;2023-01-16T06:13:31;95915.66;;;3.75;71.96
7802;BME280;3945;48.952;9.506;2023-01-16T06:15:57;95912.53;;;3.78;71.94
7802;BME280;3945;48.952;9.506;2023-01-16T06:18:23;95898.34;;;3.79;71.35
7802;BME280;3945;48.952;9.506;2023-01-16T06:20:50;95896.31;;;3.86;71.22
7802;BME280;3945;48.952;9.506;2023-01-16T06:23:18;95886.28;;;3.83;71.24
7802;BME280;3945;48.952;9.506;2023-01-16T06:25:47;95885.56;;;3.88;70.93
7802;BME280;3945;48.952;9.506;2023-01-16T06:28:13;95876.56;;;3.84;71.70
7802;BME280;3945;48.952;9.506;2023-01-16T06:30:39;95871.84;;;3.86;71.08
7802;BME280;3945;48.952;9.506;2023-01-16T06:33:06;95862.16;;;3.91;70.39
7802;BME280;3945;48.952;9.506;2023-01-16T06:35:33;95859.56;;;3.97;70.05
7802;BME280;3945;48.952;9.506;2023-01-16T06:37:59;95850.59;;;3.92;70.13
7802;BME280;3945;48.952;9.506;2023-01-16T06:40:27;95843.19;;;3.89;70.88
7802;BME280;3945;48.952;9.506;2023-01-16T06:42:53;95839.28;;;3.92;70.39
7802;BME280;3945;48.952;9.506;2023-01-16T06:45:19;95833.22;;;3.91;70.29
7802;BME280;3945;48.952;9.506;2023-01-16T06:47:50;95827.91;;;3.86;71.09
7802;BME280;3945;48.952;9.506;2023-01-16T06:50:16;95818.47;;;3.90;70.54
7802;BME280;3945;48.952;9.506;2023-01-16T06:52:42;95805.31;;;3.90;69.83
7802;BME280;3945;48.952;9.506;2023-01-16T06:55:09;95805.31;;;3.90;70.11
7802;BME280;3945;48.952;9.506;2023-01-16T06:57:37;95797.72;;;3.94;69.65
7802;BME280;3945;48.952;9.506;2023-01-16T07:00:03;95786.91;;;3.90;69.87
7802;BME280;3945;48.952;9.506;2023-01-16T07:02:30;95778.22;;;3.90;70.26
7802;BME280;3945;48.952;9.506;2023-01-16T07:04:57;95785.84;;;3.86;70.67
7802;BME280;3945;48.952;9.506;2023-01-16T07:07:23;95784.25;;;3.85;71.03
7802;BME280;3945;48.952;9.506;2023-01-16T07:09:49;95786.31;;;3.83;71.29
7802;BME280;3945;48.952;9.506;2023-01-16T07:12:16;95773.72;;;3.85;70.43
7802;BME280;3945;48.952;9.506;2023-01-16T07:14:43;95780.81;;;3.85;69.70
7802;BME280;3945;48.952;9.506;2023-01-16T07:17:27;95767.66;;;3.85;70.10
7802;BME280;3945;48.952;9.506;2023-01-16T07:20:11;95765.59;;;3.87;70.15
7802;BME280;3945;48.952;9.506;2023-01-16T07:22:55;95759.78;;;3.85;69.61
7802;BME280;3945;48.952;9.506;2023-01-16T07:25:24;95754.50;;;3.85;69.63
7802;BME280;3945;48.952;9.506;2023-01-16T07:27:51;95747.72;;;3.89;69.19
7802;BME280;3945;48.952;9.506;2023-01-16T07:30:19;95753.28;;;3.98;68.94
7802;BME280;3945;48.952;9.506;2023-01-16T07:32:46;95740.91;;;3.98;69.01
7802;BME280;3945;48.952;9.506;2023-01-16T07:35:13;95746.44;;;3.97;69.47
7802;BME280;3945;48.952;9.506;2023-01-16T07:37:39;95739.06;;;3.93;70.08
7802;BME280;3945;48.952;9.506;2023-01-16T07:40:07;95736.13;;;3.90;70.33
7802;BME280;3945;48.952;9.506;2023-01-16T07:42:34;95739.53;;;3.85;70.03
7802;BME280;3945;48.952;9.506;2023-01-16T07:45:00;95745.56;;;3.86;69.88
7802;BME280;3945;48.952;9.506;2023-01-16T07:47:28;95735.91;;;3.97;68.52
7802;BME280;3945;48.952;9.506;2023-01-16T07:49:55;95723.59;;;4.02;69.02
7802;BME280;3945;48.952;9.506;2023-01-16T07:52:21;95717.00;;;4.00;69.81
7802;BME280;3945;48.952;9.506;2023-01-16T07:54:48;95705.13;;;3.97;70.37
7802;BME280;3945;48.952;9.506;2023-01-16T07:57:14;95691.97;;;3.97;69.55
7802;BME280;3945;48.952;9.506;2023-01-16T07:59:40;95685.66;;;3.93;70.05
7802;BME280;3945;48.952;9.506;2023-01-16T08:02:07;95672.75;;;3.91;70.20
7802;BME280;3945;48.952;9.506;2023-01-16T08:04:36;95672.47;;;3.88;71.43
7802;BME280;3945;48.952;9.506;2023-01-16T08:07:02;95673.28;;;3.88;69.74
7802;BME280;3945;48.952;9.506;2023-01-16T08:09:29;95681.41;;;3.87;70.42
7802;BME280;3945;48.952;9.506;2023-01-16T08:11:55;95668.81;;;3.89;70.02
7802;BME280;3945;48.952;9.506;2023-01-16T08:14:21;95660.38;;;3.92;70.48
7802;BME280;3945;48.952;9.506;2023-01-16T08:16:48;95650.38;;;3.89;69.76
7802;BME280;3945;48.952;9.506;2023-01-16T08:19:14;95648.66;;;4.10;68.81
7802;BME280;3945;48.952;9.506;2023-01-16T08:21:42;95639.72;;;4.16;68.04
7802;BME280;3945;48.952;9.506;2023-01-16T08:24:08;95630.25;;;4.20;68.49
7802;BME280;3945;48.952;9.506;2023-01-16T08:26:37;95625.00;;;4.20;69.43
7802;BME280;3945;48.952;9.506;2023-01-16T08:29:04;95615.81;;;4.22;69.65
7802;BME280;3945;48.952;9.506;2023-01-16T08:31:30;95610.25;;;4.19;69.74
7802;BME280;3945;48.952;9.506;2023-01-16T08:33:57;95602.88;;;4.16;70.43
7802;BME280;3945;48.952;9.506;2023-01-16T08:36:23;95604.47;;;4.22;69.71
7802;BME280;3945;48.952;9.506;2023-01-16T08:38:51;95606.06;;;4.23;69.33
7802;BME280;3945;48.952;9.506;2023-01-16T08:41:18;95590.81;;;4.25;69.02
7802;BME280;3945;48.952;9.506;2023-01-16T08:44:02;95582.69;;;4.31;68.02
7802;BME280;3945;48.952;9.506;2023-01-16T08:46:47;95589.28;;;4.39;67.32
7802;BME280;3945;48.952;9.506;2023-01-16T08:49:35;95581.38;;;4.49;66.78
7802;BME280;3945;48.952;9.506;2023-01-16T08:52:19;95583.78;;;4.51;67.64
7802;BME280;3945;48.952;9.506;2023-01-16T08:54:46;95585.09;;;4.58;65.57
7802;BME280;3945;48.952;9.506;2023-01-16T08:57:13;95575.91;;;4.66;65.48
7802;BME280;3945;48.952;9.506;2023-01-16T08:59:39;95567.22;;;4.70;65.57
7802;BME280;3945;48.952;9.506;2023-01-16T09:02:05;95571.72;;;4.75;66.70
7802;BME280;3945;48.952;9.506;2023-01-16T09:04:35;95568.53;;;4.78;65.55
7802;BME280;3945;48.952;9.506;2023-01-16T09:07:01;95555.63;;;4.87;64.69
7802;BME280;3945;48.952;9.506;2023-01-16T09:09:28;95553.25;;;4.90;65.12
7802;BME280;3945;48.952;9.506;2023-01-16T09:11:57;95546.13;;;4.91;63.77
7802;BME280;3945;48.952;9.506;2023-01-16T09:14:41;95539.03;;;4.96;63.57
7802;BME280;3945;48.952;9.506;2023-01-16T09:17:07;95531.66;;;5.03;62.91
7802;BME280;3945;48.952;9.506;2023-01-16T09:19:34;95543.00;;;5.09;62.29
7802;BME280;3945;48.952;9.506;2023-01-16T09:22:01;95539.03;;;5.17;61.86
7802;BME280;3945;48.952;9.506;2023-01-16T09:24:27;95552.19;;;5.22;61.53
7802;BME280;3945;48.952;9.506;2023-01-16T09:26:53;95537.44;;;5.21;61.84
7802;BME280;3945;48.952;9.506;2023-01-16T09:29:21;95540.31;;;5.29;60.17
7802;BME280;3945;48.952;9.506;2023-01-16T09:31:47;95547.44;;;5.34;59.47
7802;BME280;3945;48.952;9.506;2023-01-16T09:34:14;95549.53;;;5.37;59.07
7802;BME280;3945;48.952;9.506;2023-01-16T09:36:40;95550.06;;;5.39;60.14
7802;BME280;3945;48.952;9.506;2023-01-16T09:39:06;95549.78;;;5.50;58.34
7802;BME280;3945;48.952;9.506;2023-01-16T09:41:34;95559.28;;;5.52;58.81
7802;BME280;3945;48.952;9.506;2023-01-16T09:44:20;95562.16;;;5.50;59.34
7802;BME280;3945;48.952;9.506;2023-01-16T09:46:48;95569.31;;;5.55;58.45
7802;BME280;3945;48.952;9.506;2023-01-16T09:49:18;95590.66;;;5.53;59.03
7802;BME280;3945;48.952;9.506;2023-01-16T09:51:47;95596.19;;;5.52;58.73
7802;BME280;3945;48.952;9.506;2023-01-16T09:54:35;95597.78;;;5.47;60.47
7802;BME280;3945;48.952;9.506;2023-01-16T09:57:22;95594.09;;;5.43;59.60
7802;BME280;3945;48.952;9.506;2023-01-16T10:00:11;95578.81;;;5.45;59.61
7802;BME280;3945;48.952;9.506;2023-01-16T10:02:41;95572.75;;;5.45;60.31
7802;BME280;3945;48.952;9.506;2023-01-16T10:05:08;95557.44;;;5.42;62.06
7802;BME280;3945;48.952;9.506;2023-01-16T10:07:48;95544.25;;;5.42;61.97
7802;BME280;3945;48.952;9.506;2023-01-16T10:10:19;95532.91;;;5.41;62.19
7802;BME280;3945;48.952;9.506;2023-01-16T10:12:53;95508.66;;;5.44;61.63
7802;BME280;3945;48.952;9.506;2023-01-16T10:15:28;95507.06;;;5.48;60.92
7802;BME280;3945;48.952;9.506;2023-01-16T10:18:00;95494.38;;;5.56;60.42
7802;BME280;3945;48.952;9.506;2023-01-16T10:20:39;95479.88;;;5.58;59.96
7802;BME280;3945;48.952;9.506;2023-01-16T10:23:12;95474.03;;;5.66;58.68
7802;BME280;3945;48.952;9.506;2023-01-16T10:25:43;95457.66;;;5.69;58.19
7802;BME280;3945;48.952;9.506;2023-01-16T10:28:16;95460.28;;;5.74;57.40
7802;BME280;3945;48.952;9.506;2023-01-16T10:30:49;95459.47;;;5.79;57.23
7802;BME280;3945;48.952;9.506;2023-01-16T10:33:17;95460.25;;;5.90;56.09
7802;BME280;3945;48.952;9.506;2023-01-16T10:35:46;95451.50;;;5.94;55.91
7802;BME280;3945;48.952;9.506;2023-01-16T10:38:18;95446.47;;;5.98;55.67
7802;BME280;3945;48.952;9.506;2023-01-16T10:40:47;95433.78;;;6.00;55.42
7802;BME280;3945;48.952;9.506;2023-01-16T10:43:17;95437.22;;;6.00;54.43
7802;BME280;3945;48.952;9.506;2023-01-16T10:46:13;95417.41;;;6.03;53.88
7802;BME280;3945;48.952;9.506;2023-01-16T10:48:59;95417.94;;;6.05;53.59
7802;BME280;3945;48.952;9.506;2023-01-16T10:51:42;95411.06;;;6.04;54.58
7802;BME280;3945;48.952;9.506;2023-01-16T10:54:09;95425.31;;;6.03;53.91
7802;BME280;3945;48.952;9.506;2023-01-16T10:56:36;95430.09;;;6.01;53.21
7802;BME280;3945;48.952;9.506;2023-01-16T10:59:03;95417.94;;;6.00;53.41
7802;BME280;3945;48.952;9.506;2023-01-16T11:01:31;95432.72;;;6.01;54.47
7802;BME280;3945;48.952;9.506;2023-01-16T11:03:58;95417.94;;;6.00;55.45
7802;BME280;3945;48.952;9.506;2023-01-16T11:06:25;95418.72;;;6.00;55.74
7802;BME280;3945;48.952;9.506;2023-01-16T11:08:53;95407.66;;;5.98;58.22
7802;BME280;3945;48.952;9.506;2023-01-16T11:11:20;95411.88;;;5.99;57.90
7802;BME280;3945;48.952;9.506;2023-01-16T11:14:06;95405.81;;;5.99;57.86
7802;BME280;3945;48.952;9.506;2023-01-16T11:16:55;95390.50;;;6.01;57.83
7802;BME280;3945;48.952;9.506;2023-01-16T11:19:40;95389.16;;;6.03;57.29
7802;BME280;3945;48.952;9.506;2023-01-16T11:22:19;95384.91;;;6.07;57.85
7802;BME280;3945;48.952;9.506;2023-01-16T11:24:46;95388.59;;;6.06;58.48
7802;BME280;3945;48.952;9.506;2023-01-16T11:27:14;95380.97;;;6.05;58.76
7802;BME280;3945;48.952;9.506;2023-01-16T11:29:44;95366.75;;;6.01;59.65
7802;BME280;3945;48.952;9.506;2023-01-16T11:32:12;95358.03;;;6.00;59.49
7802;BME280;3945;48.952;9.506;2023-01-16T11:34:42;95347.47;;;6.00;58.96
7802;BME280;3945;48.952;9.506;2023-01-16T11:37:10;95348.78;;;6.03;59.29
7802;BME280;3945;48.952;9.506;2023-01-16T11:39:38;95348.72;;;6.08;58.38
7802;BME280;3945;48.952;9.506;2023-01-16T11:42:08;95338.97;;;6.08;58.56
7802;BME280;3945;48.952;9.506;2023-01-16T11:44:58;95334.22;;;6.10;59.50
7802;BME280;3945;48.952;9.506;2023-01-16T11:47:44;95317.84;;;6.08;58.56
7802;BME280;3945;48.952;9.506;2023-01-16T11:50:26;95315.47;;;6.07;58.83
7802;BME280;3945;48.952;9.506;2023-01-16T11:52:53;95311.00;;;6.07;58.71
7802;BME280;3945;48.952;9.506;2023-01-16T11:55:20;95307.28;;;6.08;58.01
7802;BME280;3945;48.952;9.506;2023-01-16T11:57:48;95296.72;;;6.08;57.82
7802;BME280;3945;48.952;9.506;2023-01-16T12:00:22;95282.47;;;6.09;57.39
7802;BME280;3945;48.952;9.506;2023-01-16T12:05:44;95276.41;;;6.09;58.96
7802;BME280;3945;48.952;9.506;2023-01-16T12:11:04;95248.22;;;6.04;63.04
7802;BME280;3945;48.952;9.506;2023-01-16T12:13:32;95241.09;;;6.05;63.24
7802;BME280;3945;48.952;9.506;2023-01-16T12:16:20;95233.44;;;6.03;63.04
7802;BME280;3945;48.952;9.506;2023-01-16T12:18:57;95229.16;;;6.07;63.20
7802;BME280;3945;48.952;9.506;2023-01-16T12:21:31;95212.78;;;6.10;61.70
7802;BME280;3945;48.952;9.506;2023-01-16T12:24:05;95207.50;;;6.10;61.69
7802;BME280;3945;48.952;9.506;2023-01-16T12:26:38;95211.94;;;6.15;60.93
7802;BME280;3945;48.952;9.506;2023-01-16T12:29:12;95191.25;;;6.22;60.59
7802;BME280;3945;48.952;9.506;2023-01-16T12:31:44;95192.56;;;6.24;61.80
7802;BME280;3945;48.952;9.506;2023-01-16T12:34:21;95181.16;;;6.29;61.44
7802;BME280;3945;48.952;9.506;2023-01-16T12:36:56;95178.75;;;6.33;61.94
7802;BME280;3945;48.952;9.506;2023-01-16T12:39:28;95177.88;;;6.37;62.35
7802;BME280;3945;48.952;9.506;2023-01-16T12:42:01;95168.31;;;6.41;63.39
7802;BME280;3945;48.952;9.506;2023-01-16T12:44:49;95162.75;;;6.43;63.82
7802;BME280;3945;48.952;9.506;2023-01-16T12:47:20;95167.44;;;6.51;63.99
7802;BME280;3945;48.952;9.506;2023-01-16T12:49:54;95155.25;;;6.55;63.85
7802;BME280;3945;48.952;9.506;2023-01-16T12:52:34;95159.16;;;6.57;65.02
7802;BME280;3945;48.952;9.506;2023-01-16T12:55:13;95158.31;;;6.62;64.37
7802;BME280;3945;48.952;9.506;2023-01-16T12:57:59;95151.94;;;6.63;65.32
7802;BME280;3945;48.952;9.506;2023-01-16T13:00:29;95147.44;;;6.63;64.69
7802;BME280;3945;48.952;9.506;2023-01-16T13:02:57;95143.19;;;6.68;65.30
7802;BME280;3945;48.952;9.506;2023-01-16T13:05:27;95133.13;;;6.70;65.29
7802;BME280;3945;48.952;9.506;2023-01-16T13:07:57;95125.13;;;6.75;65.70
7802;BME280;3945;48.952;9.506;2023-01-16T13:10:27;95119.25;;;6.78;65.78
7802;BME280;3945;48.952;9.506;2023-01-16T13:13:22;95102.56;;;6.82;65.28
7802;BME280;3945;48.952;9.506;2023-01-16T13:15:58;95091.91;;;6.87;65.75
7802;BME280;3945;48.952;9.506;2023-01-16T13:18:26;95085.75;;;6.92;65.84
7802;BME280;3945;48.952;9.506;2023-01-16T13:20:54;95076.47;;;6.94;65.38
7802;BME280;3945;48.952;9.506;2023-01-16T13:23:23;95074.31;;;6.96;66.06
7802;BME280;3945;48.952;9.506;2023-01-16T13:25:53;95068.25;;;6.96;66.73
7802;BME280;3945;48.952;9.506;2023-01-16T13:28:23;95068.16;;;7.01;66.39
7802;BME280;3945;48.952;9.506;2023-01-16T13:30:51;95069.81;;;6.97;66.11
7802;BME280;3945;48.952;9.506;2023-01-16T13:33:19;95071.09;;;6.99;65.51
7802;BME280;3945;48.952;9.506;2023-01-16T13:35:49;95068.66;;;7.03;65.80
7802;BME280;3945;48.952;9.506;2023-01-16T13:38:37;95062.88;;;7.01;67.12
7802;BME280;3945;48.952;9.506;2023-01-16T13:41:14;95065.00;;;6.99;66.56
7802;BME280;3945;48.952;9.506;2023-01-16T13:43:43;95038.00;;;7.02;66.71
7802;BME280;3945;48.952;9.506;2023-01-16T13:46:28;95039.59;;;7.03;65.83
7802;BME280;3945;48.952;9.506;2023-01-16T13:48:56;95037.44;;;7.05;66.43
7802;BME280;3945;48.952;9.506;2023-01-16T13:51:23;95028.91;;;7.08;66.27
7802;BME280;3945;48.952;9.506;2023-01-16T13:53:52;95026.22;;;7.13;66.25
7802;BME280;3945;48.952;9.506;2023-01-16T13:56:20;95019.44;;;7.21;65.70